sensor_id;sensor_type;location;lat;lon;timestamp;P1;durP1;ratioP1;P2;durP2;ratioP2
7359;SDS011;3720;48.274;7.796;2023-06-22T00:01:44;15.73;;;8.68;;
7359;SDS011;3720;48.274;7.796;2023-06-22T00:04:16;11.98;;;8.15;;
7359;SDS011;3720;48.274;7.796;2023-06-22T00:06:48;12.73;;;8.40;;
7359;SDS011;3720;48.274;7.796;2023-06-22T00:09:20;13.40;;;8.30;;
7359;SDS011;3720;48.274;7.796;2023-06-22T00:11:53;15.38;;;9.88;;
7359;SDS011;3720;48.274;7.796;2023-06-22T00:14:25;13.85;;;9.20;;
7359;SDS011;3720;48.274;7.796;2023-06-22T00:16:57;16.67;;;9.80;;
7359;SDS011;3720;48.274;7.796;2023-06-22T00:19:29;11.85;;;9.00;;
7359;SDS011;3720;48.274;7.796;2023-06-22T00:22:01;15.27;;;8.98;;
7359;SDS011;3720;48.274;7.796;2023-06-22T00:24:33;19.88;;;9.68;;
7359;SDS011;3720;48.274;7.796;2023-06-22T00:27:06;12.63;;;8.70;;
7359;SDS011;3720;48.274;7.796;2023-06-22T00:29:38;12.98;;;9.60;;
7359;SDS011;3720;48.274;7.796;2023-06-22T00:32:10;14.80;;;8.93;;
7359;SDS011;3720;48.274;7.796;2023-06-22T00:34:42;17.33;;;9.40;;
7359;SDS011;3720;48.274;7.796;2023-06-22T00:37:14;13.18;;;9.50;;
7359;SDS011;3720;48.274;7.796;2023-06-22T00:39:46;12.95;;;8.95;;
7359;SDS011;3720;48.274;7.796;2023-06-22T00:42:19;11.52;;;8.60;;
7359;SDS011;3720;48.274;7.796;2023-06-22T00:44:51;13.18;;;9.20;;
7359;SDS011;3720;48.274;7.796;2023-06-22T00:47:23;12.35;;;8.63;;
7359;SDS011;3720;48.274;7.796;2023-06-22T00:49:54;11.48;;;8.60;;
7359;SDS011;3720;48.274;7.796;2023-06-22T00:52:26;15.93;;;8.13;;
7359;SDS011;3720;48.274;7.796;2023-06-22T00:55:01;11.82;;;8.52;;
7359;SDS011;3720;48.274;7.796;2023-06-22T00:57:35;13.05;;;8.57;;
7359;SDS011;3720;48.274;7.796;2023-06-22T01:00:08;13.60;;;8.73;;
7359;SDS011;3720;48.274;7.796;2023-06-22T01:02:46;12.45;;;7.97;;
7359;SDS011;3720;48.274;7.796;2023-06-22T01:05:21;14.77;;;9.63;;
7359;SDS011;3720;48.274;7.796;2023-06-22T01:07:57;16.67;;;9.10;;
7359;SDS011;3720;48.274;7.796;2023-06-22T01:10:48;19.17;;;9.55;;
7359;SDS011;3720;48.274;7.796;2023-06-22T01:13:27;14.40;;;8.73;;
7359;SDS011;3720;48.274;7.796;2023-06-22T01:16:04;13.90;;;9.13;;
7359;SDS011;3720;48.274;7.796;2023-06-22T01:18:40;13.63;;;8.45;;
7359;SDS011;3720;48.274;7.796;2023-06-22T01:21:14;13.52;;;8.68;;
7359;SDS011;3720;48.274;7.796;2023-06-22T01:23:55;12.73;;;8.50;;
7359;SDS011;3720;48.274;7.796;2023-06-22T01:26:38;13.95;;;9.65;;
7359;SDS011;3720;48.274;7.796;2023-06-22T01:29:15;11.90;;;9.48;;
7359;SDS011;3720;48.274;7.796;2023-06-22T01:31:49;13.70;;;9.55;;
7359;SDS011;3720;48.274;7.796;2023-06-22T01:34:21;14.95;;;9.20;;
7359;SDS011;3720;48.274;7.796;2023-06-22T01:36:55;11.85;;;8.50;;
7359;SDS011;3720;48.274;7.796;2023-06-22T01:39:28;10.70;;;8.68;;
7359;SDS011;3720;48.274;7.796;2023-06-22T01:42:01;12.35;;;8.38;;
7359;SDS011;3720;48.274;7.796;2023-06-22T01:44:36;12.40;;;8.55;;
7359;SDS011;3720;48.274;7.796;2023-06-22T01:47:09;14.55;;;9.70;;
7359;SDS011;3720;48.274;7.796;2023-06-22T01:49:43;18.35;;;10.63;;
7359;SDS011;3720;48.274;7.796;2023-06-22T01:52:16;16.13;;;9.45;;
7359;SDS011;3720;48.274;7.796;2023-06-22T01:54:48;20.15;;;9.98;;
7359;SDS011;3720;48.274;7.796;2023-06-22T01:57:20;18.33;;;10.32;;
7359;SDS011;3720;48.274;7.796;2023-06-22T01:59:56;14.43;;;9.52;;
7359;SDS011;3720;48.274;7.796;2023-06-22T02:02:32;20.40;;;9.77;;
7359;SDS011;3720;48.274;7.796;2023-06-22T02:05:08;13.63;;;9.00;;
7359;SDS011;3720;48.274;7.796;2023-06-22T02:07:41;17.45;;;8.75;;
7359;SDS011;3720;48.274;7.796;2023-06-22T02:10:18;20.85;;;10.48;;
7359;SDS011;3720;48.274;7.796;2023-06-22T02:12:53;17.73;;;9.88;;
7359;SDS011;3720;48.274;7.796;2023-06-22T02:15:28;14.75;;;8.98;;
7359;SDS011;3720;48.274;7.796;2023-06-22T02:18:00;12.40;;;9.30;;
7359;SDS011;3720;48.274;7.796;2023-06-22T02:20:32;13.93;;;8.88;;
7359;SDS011;3720;48.274;7.796;2023-06-22T02:23:07;14.10;;;8.90;;
7359;SDS011;3720;48.274;7.796;2023-06-22T02:25:39;14.18;;;9.27;;
7359;SDS011;3720;48.274;7.796;2023-06-22T02:28:14;16.02;;;9.05;;
7359;SDS011;3720;48.274;7.796;2023-06-22T02:30:47;15.95;;;9.00;;
7359;SDS011;3720;48.274;7.796;2023-06-22T02:33:19;16.38;;;9.30;;
7359;SDS011;3720;48.274;7.796;2023-06-22T02:35:51;9.63;;;8.48;;
7359;SDS011;3720;48.274;7.796;2023-06-22T02:38:23;17.42;;;9.23;;
7359;SDS011;3720;48.274;7.796;2023-06-22T02:40:56;17.02;;;8.48;;
7359;SDS011;3720;48.274;7.796;2023-06-22T02:43:28;14.48;;;8.90;;
7359;SDS011;3720;48.274;7.796;2023-06-22T02:46:01;11.48;;;8.05;;
7359;SDS011;3720;48.274;7.796;2023-06-22T02:48:33;16.83;;;9.43;;
7359;SDS011;3720;48.274;7.796;2023-06-22T02:51:06;16.98;;;8.77;;
7359;SDS011;3720;48.274;7.796;2023-06-22T02:53:38;14.38;;;9.13;;
7359;SDS011;3720;48.274;7.796;2023-06-22T02:56:10;23.38;;;9.05;;
7359;SDS011;3720;48.274;7.796;2023-06-22T02:58:42;15.65;;;9.90;;
7359;SDS011;3720;48.274;7.796;2023-06-22T03:01:16;23.23;;;10.25;;
7359;SDS011;3720;48.274;7.796;2023-06-22T03:03:53;19.90;;;9.93;;
7359;SDS011;3720;48.274;7.796;2023-06-22T03:06:25;15.38;;;8.65;;
7359;SDS011;3720;48.274;7.796;2023-06-22T03:08:59;20.20;;;9.68;;
7359;SDS011;3720;48.274;7.796;2023-06-22T03:11:34;13.23;;;9.52;;
7359;SDS011;3720;48.274;7.796;2023-06-22T03:14:05;15.02;;;10.07;;
7359;SDS011;3720;48.274;7.796;2023-06-22T03:16:39;14.27;;;9.52;;
7359;SDS011;3720;48.274;7.796;2023-06-22T03:19:11;18.52;;;9.52;;
7359;SDS011;3720;48.274;7.796;2023-06-22T03:21:43;16.92;;;9.32;;
7359;SDS011;3720;48.274;7.796;2023-06-22T03:24:15;20.88;;;10.82;;
7359;SDS011;3720;48.274;7.796;2023-06-22T03:26:47;18.50;;;10.52;;
7359;SDS011;3720;48.274;7.796;2023-06-22T03:29:19;16.42;;;9.57;;
7359;SDS011;3720;48.274;7.796;2023-06-22T03:31:52;19.00;;;10.57;;
7359;SDS011;3720;48.274;7.796;2023-06-22T03:34:24;15.38;;;9.13;;
7359;SDS011;3720;48.274;7.796;2023-06-22T03:36:56;18.60;;;10.55;;
7359;SDS011;3720;48.274;7.796;2023-06-22T03:39:28;16.80;;;10.35;;
7359;SDS011;3720;48.274;7.796;2023-06-22T03:42:00;20.63;;;10.25;;
7359;SDS011;3720;48.274;7.796;2023-06-22T03:44:32;18.67;;;10.35;;
7359;SDS011;3720;48.274;7.796;2023-06-22T03:47:07;23.98;;;10.68;;
7359;SDS011;3720;48.274;7.796;2023-06-22T03:49:39;13.13;;;9.82;;
7359;SDS011;3720;48.274;7.796;2023-06-22T03:52:11;13.88;;;9.23;;
7359;SDS011;3720;48.274;7.796;2023-06-22T03:54:43;15.30;;;9.23;;
7359;SDS011;3720;48.274;7.796;2023-06-22T03:57:15;16.25;;;10.00;;
7359;SDS011;3720;48.274;7.796;2023-06-22T03:59:46;15.88;;;10.05;;
7359;SDS011;3720;48.274;7.796;2023-06-22T04:02:20;13.90;;;10.35;;
7359;SDS011;3720;48.274;7.796;2023-06-22T04:04:51;14.07;;;8.95;;
7359;SDS011;3720;48.274;7.796;2023-06-22T04:07:23;14.50;;;10.32;;
7359;SDS011;3720;48.274;7.796;2023-06-22T04:09:55;14.93;;;9.80;;
7359;SDS011;3720;48.274;7.796;2023-06-22T04:12:27;13.30;;;9.10;;
7359;SDS011;3720;48.274;7.796;2023-06-22T04:14:59;14.15;;;10.20;;
7359;SDS011;3720;48.274;7.796;2023-06-22T04:17:32;16.05;;;9.60;;
7359;SDS011;3720;48.274;7.796;2023-06-22T04:20:05;16.05;;;9.60;;
7359;SDS011;3720;48.274;7.796;2023-06-22T04:22:38;15.73;;;9.88;;
7359;SDS011;3720;48.274;7.796;2023-06-22T04:25:09;12.90;;;9.00;;
7359;SDS011;3720;48.274;7.796;2023-06-22T04:27:41;13.98;;;9.32;;
7359;SDS011;3720;48.274;7.796;2023-06-22T04:30:13;16.63;;;10.85;;
7359;SDS011;3720;48.274;7.796;2023-06-22T04:32:48;15.90;;;9.70;;
7359;SDS011;3720;48.274;7.796;2023-06-22T04:35:26;14.45;;;9.25;;
7359;SDS011;3720;48.274;7.796;2023-06-22T04:37:58;17.38;;;9.65;;
7359;SDS011;3720;48.274;7.796;2023-06-22T04:40:30;14.32;;;9.40;;
7359;SDS011;3720;48.274;7.796;2023-06-22T04:43:02;15.63;;;9.55;;
7359;SDS011;3720;48.274;7.796;2023-06-22T04:45:36;18.42;;;9.20;;
7359;SDS011;3720;48.274;7.796;2023-06-22T04:48:09;15.85;;;9.45;;
7359;SDS011;3720;48.274;7.796;2023-06-22T04:50:46;16.27;;;9.10;;
7359;SDS011;3720;48.274;7.796;2023-06-22T04:53:17;15.43;;;9.20;;
7359;SDS011;3720;48.274;7.796;2023-06-22T04:55:49;17.13;;;9.73;;
7359;SDS011;3720;48.274;7.796;2023-06-22T04:58:23;17.98;;;11.20;;
7359;SDS011;3720;48.274;7.796;2023-06-22T05:00:57;14.68;;;8.55;;
7359;SDS011;3720;48.274;7.796;2023-06-22T05:03:30;15.90;;;9.60;;
7359;SDS011;3720;48.274;7.796;2023-06-22T05:06:02;16.55;;;9.48;;
7359;SDS011;3720;48.274;7.796;2023-06-22T05:08:35;15.48;;;9.40;;
7359;SDS011;3720;48.274;7.796;2023-06-22T05:11:07;14.77;;;8.35;;
7359;SDS011;3720;48.274;7.796;2023-06-22T05:13:38;15.50;;;10.48;;
7359;SDS011;3720;48.274;7.796;2023-06-22T05:16:10;12.23;;;8.80;;
7359;SDS011;3720;48.274;7.796;2023-06-22T05:18:43;12.95;;;8.95;;
7359;SDS011;3720;48.274;7.796;2023-06-22T05:21:15;12.20;;;9.15;;
7359;SDS011;3720;48.274;7.796;2023-06-22T05:23:47;12.73;;;8.38;;
7359;SDS011;3720;48.274;7.796;2023-06-22T05:26:20;11.43;;;8.40;;
7359;SDS011;3720;48.274;7.796;2023-06-22T05:28:52;15.93;;;9.20;;
7359;SDS011;3720;48.274;7.796;2023-06-22T05:31:24;13.57;;;9.18;;
7359;SDS011;3720;48.274;7.796;2023-06-22T05:33:58;15.63;;;9.90;;
7359;SDS011;3720;48.274;7.796;2023-06-22T05:36:31;12.85;;;8.48;;
7359;SDS011;3720;48.274;7.796;2023-06-22T05:39:10;13.05;;;8.35;;
7359;SDS011;3720;48.274;7.796;2023-06-22T05:41:44;14.23;;;9.85;;
7359;SDS011;3720;48.274;7.796;2023-06-22T05:44:16;13.20;;;9.68;;
7359;SDS011;3720;48.274;7.796;2023-06-22T05:46:49;16.65;;;10.70;;
7359;SDS011;3720;48.274;7.796;2023-06-22T05:49:22;12.60;;;9.70;;
7359;SDS011;3720;48.274;7.796;2023-06-22T05:51:59;12.93;;;8.75;;
7359;SDS011;3720;48.274;7.796;2023-06-22T05:54:32;14.38;;;9.48;;
7359;SDS011;3720;48.274;7.796;2023-06-22T05:57:04;14.60;;;9.45;;
7359;SDS011;3720;48.274;7.796;2023-06-22T05:59:36;13.73;;;9.85;;
7359;SDS011;3720;48.274;7.796;2023-06-22T06:02:08;13.48;;;9.07;;
7359;SDS011;3720;48.274;7.796;2023-06-22T06:04:41;15.63;;;10.40;;
7359;SDS011;3720;48.274;7.796;2023-06-22T06:07:13;15.35;;;11.27;;
7359;SDS011;3720;48.274;7.796;2023-06-22T06:09:45;13.18;;;9.43;;
7359;SDS011;3720;48.274;7.796;2023-06-22T06:12:18;13.35;;;9.40;;
7359;SDS011;3720;48.274;7.796;2023-06-22T06:14:50;14.85;;;10.05;;
7359;SDS011;3720;48.274;7.796;2023-06-22T06:17:23;19.00;;;11.98;;
7359;SDS011;3720;48.274;7.796;2023-06-22T06:19:58;13.07;;;10.70;;
7359;SDS011;3720;48.274;7.796;2023-06-22T06:22:30;15.43;;;10.80;;
7359;SDS011;3720;48.274;7.796;2023-06-22T06:25:02;18.27;;;10.35;;
7359;SDS011;3720;48.274;7.796;2023-06-22T06:27:34;14.38;;;9.68;;
7359;SDS011;3720;48.274;7.796;2023-06-22T06:30:07;16.13;;;10.30;;
7359;SDS011;3720;48.274;7.796;2023-06-22T06:32:39;16.30;;;11.40;;
7359;SDS011;3720;48.274;7.796;2023-06-22T06:35:14;15.73;;;10.38;;
7359;SDS011;3720;48.274;7.796;2023-06-22T06:37:49;13.85;;;10.43;;
7359;SDS011;3720;48.274;7.796;2023-06-22T06:40:21;16.38;;;10.88;;
7359;SDS011;3720;48.274;7.796;2023-06-22T06:42:53;15.63;;;10.65;;
7359;SDS011;3720;48.274;7.796;2023-06-22T06:45:25;17.05;;;11.82;;
7359;SDS011;3720;48.274;7.796;2023-06-22T06:47:58;16.88;;;10.20;;
7359;SDS011;3720;48.274;7.796;2023-06-22T06:50:31;21.02;;;12.25;;
7359;SDS011;3720;48.274;7.796;2023-06-22T06:53:03;19.25;;;12.65;;
7359;SDS011;3720;48.274;7.796;2023-06-22T06:55:35;19.58;;;12.77;;
7359;SDS011;3720;48.274;7.796;2023-06-22T06:58:07;18.27;;;13.88;;
7359;SDS011;3720;48.274;7.796;2023-06-22T07:00:42;21.90;;;15.23;;
7359;SDS011;3720;48.274;7.796;2023-06-22T07:03:14;22.45;;;14.35;;
7359;SDS011;3720;48.274;7.796;2023-06-22T07:05:48;17.58;;;12.95;;
7359;SDS011;3720;48.274;7.796;2023-06-22T07:08:20;18.98;;;14.50;;
7359;SDS011;3720;48.274;7.796;2023-06-22T07:10:52;22.75;;;16.02;;
7359;SDS011;3720;48.274;7.796;2023-06-22T07:13:24;25.92;;;17.00;;
7359;SDS011;3720;48.274;7.796;2023-06-22T07:15:56;31.08;;;18.02;;
7359;SDS011;3720;48.274;7.796;2023-06-22T07:18:28;27.98;;;18.38;;
7359;SDS011;3720;48.274;7.796;2023-06-22T07:21:11;30.85;;;19.25;;
7359;SDS011;3720;48.274;7.796;2023-06-22T07:23:43;28.30;;;19.27;;
7359;SDS011;3720;48.274;7.796;2023-06-22T07:26:15;27.40;;;17.10;;
7359;SDS011;3720;48.274;7.796;2023-06-22T07:28:47;23.80;;;16.98;;
7359;SDS011;3720;48.274;7.796;2023-06-22T07:31:20;21.27;;;15.50;;
7359;SDS011;3720;48.274;7.796;2023-06-22T07:33:52;30.08;;;20.45;;
7359;SDS011;3720;48.274;7.796;2023-06-22T07:36:25;31.25;;;18.92;;
7359;SDS011;3720;48.274;7.796;2023-06-22T07:39:00;28.08;;;20.65;;
7359;SDS011;3720;48.274;7.796;2023-06-22T07:41:33;30.48;;;22.23;;
7359;SDS011;3720;48.274;7.796;2023-06-22T07:44:04;32.17;;;22.48;;
7359;SDS011;3720;48.274;7.796;2023-06-22T07:46:37;31.45;;;23.52;;
7359;SDS011;3720;48.274;7.796;2023-06-22T07:49:09;29.67;;;23.13;;
7359;SDS011;3720;48.274;7.796;2023-06-22T07:51:43;32.65;;;23.85;;
7359;SDS011;3720;48.274;7.796;2023-06-22T07:54:14;32.15;;;23.35;;
7359;SDS011;3720;48.274;7.796;2023-06-22T07:56:47;34.97;;;24.15;;
7359;SDS011;3720;48.274;7.796;2023-06-22T07:59:19;32.83;;;22.95;;
7359;SDS011;3720;48.274;7.796;2023-06-22T08:01:51;36.47;;;23.70;;
7359;SDS011;3720;48.274;7.796;2023-06-22T08:04:23;29.90;;;21.95;;
7359;SDS011;3720;48.274;7.796;2023-06-22T08:06:56;32.70;;;22.45;;
7359;SDS011;3720;48.274;7.796;2023-06-22T08:09:28;29.48;;;21.40;;
7359;SDS011;3720;48.274;7.796;2023-06-22T08:12:01;30.10;;;20.95;;
7359;SDS011;3720;48.274;7.796;2023-06-22T08:14:33;26.15;;;19.92;;
7359;SDS011;3720;48.274;7.796;2023-06-22T08:17:09;29.05;;;20.45;;
7359;SDS011;3720;48.274;7.796;2023-06-22T08:19:41;27.60;;;18.17;;
7359;SDS011;3720;48.274;7.796;2023-06-22T08:22:15;25.83;;;18.05;;
7359;SDS011;3720;48.274;7.796;2023-06-22T08:24:47;26.70;;;17.35;;
7359;SDS011;3720;48.274;7.796;2023-06-22T08:27:19;25.50;;;17.85;;
7359;SDS011;3720;48.274;7.796;2023-06-22T08:29:53;23.80;;;17.08;;
7359;SDS011;3720;48.274;7.796;2023-06-22T08:32:28;24.55;;;16.30;;
7359;SDS011;3720;48.274;7.796;2023-06-22T08:35:00;26.60;;;15.45;;
7359;SDS011;3720;48.274;7.796;2023-06-22T08:37:33;22.75;;;15.13;;
7359;SDS011;3720;48.274;7.796;2023-06-22T08:40:06;19.73;;;13.45;;
7359;SDS011;3720;48.274;7.796;2023-06-22T08:42:40;20.73;;;12.60;;
7359;SDS011;3720;48.274;7.796;2023-06-22T08:45:12;16.48;;;11.38;;
7359;SDS011;3720;48.274;7.796;2023-06-22T08:47:45;20.13;;;10.88;;
7359;SDS011;3720;48.274;7.796;2023-06-22T08:50:17;24.08;;;12.35;;
7359;SDS011;3720;48.274;7.796;2023-06-22T08:52:51;18.25;;;10.82;;
7359;SDS011;3720;48.274;7.796;2023-06-22T08:55:23;21.38;;;11.55;;
7359;SDS011;3720;48.274;7.796;2023-06-22T08:57:55;18.63;;;10.88;;
7359;SDS011;3720;48.274;7.796;2023-06-22T09:00:27;16.50;;;10.07;;
7359;SDS011;3720;48.274;7.796;2023-06-22T09:03:02;14.70;;;10.93;;
7359;SDS011;3720;48.274;7.796;2023-06-22T09:05:34;19.63;;;10.48;;
7359;SDS011;3720;48.274;7.796;2023-06-22T09:08:10;18.00;;;10.40;;
7359;SDS011;3720;48.274;7.796;2023-06-22T09:10:42;14.13;;;9.40;;
7359;SDS011;3720;48.274;7.796;2023-06-22T09:13:14;15.05;;;9.25;;
7359;SDS011;3720;48.274;7.796;2023-06-22T09:15:46;14.75;;;10.02;;
7359;SDS011;3720;48.274;7.796;2023-06-22T09:18:19;17.75;;;10.43;;
7359;SDS011;3720;48.274;7.796;2023-06-22T09:20:51;12.20;;;8.88;;
7359;SDS011;3720;48.274;7.796;2023-06-22T09:23:25;15.82;;;8.77;;
7359;SDS011;3720;48.274;7.796;2023-06-22T09:25:57;13.65;;;8.23;;
7359;SDS011;3720;48.274;7.796;2023-06-22T09:28:29;11.95;;;8.02;;
7359;SDS011;3720;48.274;7.796;2023-06-22T09:31:01;16.08;;;7.78;;
7359;SDS011;3720;48.274;7.796;2023-06-22T09:33:33;17.63;;;8.10;;
7359;SDS011;3720;48.274;7.796;2023-06-22T09:36:05;16.38;;;8.35;;
7359;SDS011;3720;48.274;7.796;2023-06-22T09:38:39;12.18;;;8.63;;
7359;SDS011;3720;48.274;7.796;2023-06-22T09:41:12;16.55;;;8.43;;
7359;SDS011;3720;48.274;7.796;2023-06-22T09:43:44;14.80;;;8.60;;
7359;SDS011;3720;48.274;7.796;2023-06-22T09:46:16;15.02;;;8.15;;
7359;SDS011;3720;48.274;7.796;2023-06-22T09:48:48;13.15;;;8.45;;
7359;SDS011;3720;48.274;7.796;2023-06-22T09:51:20;14.95;;;8.25;;
7359;SDS011;3720;48.274;7.796;2023-06-22T09:53:55;11.77;;;7.80;;
7359;SDS011;3720;48.274;7.796;2023-06-22T09:56:28;14.55;;;8.43;;
7359;SDS011;3720;48.274;7.796;2023-06-22T09:59:01;17.38;;;8.02;;
7359;SDS011;3720;48.274;7.796;2023-06-22T10:01:33;14.57;;;7.75;;
7359;SDS011;3720;48.274;7.796;2023-06-22T10:04:05;15.57;;;7.80;;
7359;SDS011;3720;48.274;7.796;2023-06-22T10:06:36;11.77;;;7.25;;
7359;SDS011;3720;48.274;7.796;2023-06-22T10:09:11;11.77;;;7.15;;
7359;SDS011;3720;48.274;7.796;2023-06-22T10:11:43;15.13;;;7.10;;
7359;SDS011;3720;48.274;7.796;2023-06-22T10:14:15;12.32;;;7.00;;
7359;SDS011;3720;48.274;7.796;2023-06-22T10:16:47;13.27;;;7.30;;
7359;SDS011;3720;48.274;7.796;2023-06-22T10:19:19;15.30;;;7.13;;
7359;SDS011;3720;48.274;7.796;2023-06-22T10:21:51;13.05;;;6.90;;
7359;SDS011;3720;48.274;7.796;2023-06-22T10:24:25;13.68;;;6.85;;
7359;SDS011;3720;48.274;7.796;2023-06-22T10:26:57;11.93;;;7.15;;
7359;SDS011;3720;48.274;7.796;2023-06-22T10:29:29;13.23;;;7.35;;
7359;SDS011;3720;48.274;7.796;2023-06-22T10:32:01;14.05;;;7.22;;
7359;SDS011;3720;48.274;7.796;2023-06-22T10:34:33;15.27;;;6.93;;
7359;SDS011;3720;48.274;7.796;2023-06-22T10:37:05;14.02;;;6.82;;
7359;SDS011;3720;48.274;7.796;2023-06-22T10:39:39;17.10;;;7.53;;
7359;SDS011;3720;48.274;7.796;2023-06-22T10:42:11;12.07;;;6.93;;
7359;SDS011;3720;48.274;7.796;2023-06-22T10:44:43;11.85;;;6.80;;
7359;SDS011;3720;48.274;7.796;2023-06-22T10:47:15;14.05;;;7.00;;
7359;SDS011;3720;48.274;7.796;2023-06-22T10:49:47;16.08;;;7.30;;
7359;SDS011;3720;48.274;7.796;2023-06-22T10:52:19;13.38;;;6.60;;
7359;SDS011;3720;48.274;7.796;2023-06-22T10:54:52;11.52;;;7.10;;
7359;SDS011;3720;48.274;7.796;2023-06-22T10:57:25;13.75;;;7.38;;
7359;SDS011;3720;48.274;7.796;2023-06-22T10:59:57;13.30;;;7.18;;
7359;SDS011;3720;48.274;7.796;2023-06-22T11:02:29;11.38;;;7.60;;
7359;SDS011;3720;48.274;7.796;2023-06-22T11:05:01;15.45;;;8.02;;
7359;SDS011;3720;48.274;7.796;2023-06-22T11:07:33;16.77;;;7.28;;
7359;SDS011;3720;48.274;7.796;2023-06-22T11:10:07;15.93;;;7.13;;
7359;SDS011;3720;48.274;7.796;2023-06-22T11:12:39;14.70;;;7.35;;
7359;SDS011;3720;48.274;7.796;2023-06-22T11:15:12;16.08;;;7.55;;
7359;SDS011;3720;48.274;7.796;2023-06-22T11:17:44;13.20;;;7.15;;
7359;SDS011;3720;48.274;7.796;2023-06-22T11:20:16;13.32;;;7.65;;
7359;SDS011;3720;48.274;7.796;2023-06-22T11:22:49;10.13;;;6.68;;
7359;SDS011;3720;48.274;7.796;2023-06-22T11:25:22;14.68;;;7.82;;
7359;SDS011;3720;48.274;7.796;2023-06-22T11:27:54;14.18;;;7.40;;
7359;SDS011;3720;48.274;7.796;2023-06-22T11:30:27;11.75;;;8.13;;
7359;SDS011;3720;48.274;7.796;2023-06-22T11:32:59;12.70;;;7.60;;
7359;SDS011;3720;48.274;7.796;2023-06-22T11:35:31;12.75;;;7.57;;
7359;SDS011;3720;48.274;7.796;2023-06-22T11:38:03;15.25;;;8.00;;
7359;SDS011;3720;48.274;7.796;2023-06-22T11:40:36;13.32;;;7.75;;
7359;SDS011;3720;48.274;7.796;2023-06-22T11:43:08;13.63;;;8.00;;
7359;SDS011;3720;48.274;7.796;2023-06-22T11:45:40;12.20;;;7.80;;
7359;SDS011;3720;48.274;7.796;2023-06-22T11:48:12;14.52;;;7.97;;
7359;SDS011;3720;48.274;7.796;2023-06-22T11:50:44;12.73;;;8.55;;
7359;SDS011;3720;48.274;7.796;2023-06-22T11:53:15;11.65;;;8.10;;
7359;SDS011;3720;48.274;7.796;2023-06-22T11:55:49;14.10;;;7.78;;
7359;SDS011;3720;48.274;7.796;2023-06-22T11:58:21;11.82;;;7.65;;
7359;SDS011;3720;48.274;7.796;2023-06-22T12:00:54;12.52;;;7.70;;
7359;SDS011;3720;48.274;7.796;2023-06-22T12:03:26;15.55;;;7.35;;
7359;SDS011;3720;48.274;7.796;2023-06-22T12:05:57;10.07;;;7.10;;
7359;SDS011;3720;48.274;7.796;2023-06-22T12:08:30;14.75;;;7.70;;
7359;SDS011;3720;48.274;7.796;2023-06-22T12:11:04;13.57;;;7.80;;
7359;SDS011;3720;48.274;7.796;2023-06-22T12:13:36;14.48;;;8.57;;
7359;SDS011;3720;48.274;7.796;2023-06-22T12:16:07;12.77;;;7.50;;
7359;SDS011;3720;48.274;7.796;2023-06-22T12:18:39;13.80;;;8.05;;
7359;SDS011;3720;48.274;7.796;2023-06-22T12:21:11;16.50;;;8.52;;
7359;SDS011;3720;48.274;7.796;2023-06-22T12:23:43;14.88;;;8.30;;
7359;SDS011;3720;48.274;7.796;2023-06-22T12:26:17;13.98;;;8.20;;
7359;SDS011;3720;48.274;7.796;2023-06-22T12:28:49;10.95;;;8.02;;
7359;SDS011;3720;48.274;7.796;2023-06-22T12:31:21;15.60;;;9.07;;
7359;SDS011;3720;48.274;7.796;2023-06-22T12:33:53;14.68;;;8.23;;
7359;SDS011;3720;48.274;7.796;2023-06-22T12:36:24;14.52;;;8.05;;
7359;SDS011;3720;48.274;7.796;2023-06-22T12:38:56;11.75;;;8.45;;
7359;SDS011;3720;48.274;7.796;2023-06-22T12:41:29;15.10;;;8.80;;
7359;SDS011;3720;48.274;7.796;2023-06-22T12:44:01;15.95;;;8.38;;
7359;SDS011;3720;48.274;7.796;2023-06-22T12:46:34;15.32;;;8.40;;
7359;SDS011;3720;48.274;7.796;2023-06-22T12:49:07;16.67;;;8.02;;
7359;SDS011;3720;48.274;7.796;2023-06-22T12:51:39;17.52;;;7.45;;
7359;SDS011;3720;48.274;7.796;2023-06-22T12:54:12;13.60;;;7.35;;
7359;SDS011;3720;48.274;7.796;2023-06-22T12:56:46;17.35;;;7.70;;
7359;SDS011;3720;48.274;7.796;2023-06-22T12:59:18;18.30;;;7.45;;
7359;SDS011;3720;48.274;7.796;2023-06-22T13:01:50;15.55;;;7.38;;
7359;SDS011;3720;48.274;7.796;2023-06-22T13:04:21;16.75;;;7.88;;
7359;SDS011;3720;48.274;7.796;2023-06-22T13:06:53;16.85;;;7.05;;
7359;SDS011;3720;48.274;7.796;2023-06-22T13:09:25;19.35;;;7.60;;
7359;SDS011;3720;48.274;7.796;2023-06-22T13:11:59;19.40;;;7.13;;
7359;SDS011;3720;48.274;7.796;2023-06-22T13:14:31;17.27;;;6.95;;
7359;SDS011;3720;48.274;7.796;2023-06-22T13:17:03;17.63;;;6.55;;
7359;SDS011;3720;48.274;7.796;2023-06-22T13:19:36;16.05;;;7.25;;
7359;SDS011;3720;48.274;7.796;2023-06-22T13:22:24;14.82;;;6.97;;
7359;SDS011;3720;48.274;7.796;2023-06-22T13:24:58;16.50;;;6.85;;
7359;SDS011;3720;48.274;7.796;2023-06-22T13:27:33;19.30;;;7.40;;
7359;SDS011;3720;48.274;7.796;2023-06-22T13:30:06;17.27;;;6.90;;
7359;SDS011;3720;48.274;7.796;2023-06-22T13:32:39;16.85;;;7.00;;
7359;SDS011;3720;48.274;7.796;2023-06-22T13:35:11;22.00;;;6.88;;
7359;SDS011;3720;48.274;7.796;2023-06-22T13:37:43;16.27;;;6.57;;
7359;SDS011;3720;48.274;7.796;2023-06-22T13:40:15;15.05;;;6.70;;
7359;SDS011;3720;48.274;7.796;2023-06-22T13:42:49;19.60;;;7.32;;
7359;SDS011;3720;48.274;7.796;2023-06-22T13:45:21;15.85;;;6.53;;
7359;SDS011;3720;48.274;7.796;2023-06-22T13:47:53;16.67;;;6.55;;
7359;SDS011;3720;48.274;7.796;2023-06-22T13:50:25;20.88;;;6.50;;
7359;SDS011;3720;48.274;7.796;2023-06-22T13:52:59;17.08;;;6.63;;
7359;SDS011;3720;48.274;7.796;2023-06-22T13:55:31;15.40;;;6.18;;
7359;SDS011;3720;48.274;7.796;2023-06-22T13:58:04;12.43;;;6.18;;
7359;SDS011;3720;48.274;7.796;2023-06-22T14:00:36;19.60;;;6.50;;
7359;SDS011;3720;48.274;7.796;2023-06-22T14:03:08;22.05;;;6.65;;
7359;SDS011;3720;48.274;7.796;2023-06-22T14:05:40;18.42;;;6.28;;
7359;SDS011;3720;48.274;7.796;2023-06-22T14:08:12;16.52;;;6.35;;
7359;SDS011;3720;48.274;7.796;2023-06-22T14:10:45;14.38;;;6.00;;
7359;SDS011;3720;48.274;7.796;2023-06-22T14:13:18;18.85;;;6.10;;
7359;SDS011;3720;48.274;7.796;2023-06-22T14:15:50;21.63;;;7.15;;
7359;SDS011;3720;48.274;7.796;2023-06-22T14:18:24;20.90;;;6.53;;
7359;SDS011;3720;48.274;7.796;2023-06-22T14:20:56;20.42;;;6.60;;
7359;SDS011;3720;48.274;7.796;2023-06-22T14:23:28;14.85;;;6.35;;
7359;SDS011;3720;48.274;7.796;2023-06-22T14:25:59;22.33;;;6.05;;
7359;SDS011;3720;48.274;7.796;2023-06-22T14:28:33;18.42;;;6.57;;
7359;SDS011;3720;48.274;7.796;2023-06-22T14:31:04;19.25;;;5.85;;
7359;SDS011;3720;48.274;7.796;2023-06-22T14:33:36;18.55;;;5.95;;
7359;SDS011;3720;48.274;7.796;2023-06-22T14:36:08;15.85;;;5.70;;
7359;SDS011;3720;48.274;7.796;2023-06-22T14:38:41;19.58;;;5.60;;
7359;SDS011;3720;48.274;7.796;2023-06-22T14:41:13;19.08;;;5.50;;
7359;SDS011;3720;48.274;7.796;2023-06-22T14:43:49;14.77;;;5.80;;
7359;SDS011;3720;48.274;7.796;2023-06-22T14:46:21;17.25;;;5.57;;
7359;SDS011;3720;48.274;7.796;2023-06-22T14:48:54;14.82;;;5.63;;
7359;SDS011;3720;48.274;7.796;2023-06-22T14:51:25;18.80;;;5.47;;
7359;SDS011;3720;48.274;7.796;2023-06-22T14:53:58;16.92;;;5.85;;
7359;SDS011;3720;48.274;7.796;2023-06-22T14:56:30;16.20;;;5.43;;
7359;SDS011;3720;48.274;7.796;2023-06-22T14:59:03;14.32;;;5.60;;
7359;SDS011;3720;48.274;7.796;2023-06-22T15:01:35;17.60;;;5.85;;
7359;SDS011;3720;48.274;7.796;2023-06-22T15:04:07;17.25;;;5.35;;
7359;SDS011;3720;48.274;7.796;2023-06-22T15:06:38;15.73;;;5.50;;
7359;SDS011;3720;48.274;7.796;2023-06-22T15:09:11;17.20;;;5.38;;
7359;SDS011;3720;48.274;7.796;2023-06-22T15:11:42;15.63;;;5.35;;
7359;SDS011;3720;48.274;7.796;2023-06-22T15:14:16;13.20;;;5.15;;
7359;SDS011;3720;48.274;7.796;2023-06-22T15:16:48;16.20;;;5.53;;
7359;SDS011;3720;48.274;7.796;2023-06-22T15:19:20;17.90;;;5.28;;
7359;SDS011;3720;48.274;7.796;2023-06-22T15:22:03;16.95;;;5.40;;
7359;SDS011;3720;48.274;7.796;2023-06-22T15:24:36;16.23;;;5.78;;
7359;SDS011;3720;48.274;7.796;2023-06-22T15:27:08;17.05;;;5.00;;
7359;SDS011;3720;48.274;7.796;2023-06-22T15:29:41;16.60;;;5.32;;
7359;SDS011;3720;48.274;7.796;2023-06-22T15:32:13;12.43;;;4.90;;